Time;durP1;ratioP1;P1;durP2;ratioP2;P2;SDS_P1;SDS_P2;PMS_P1;PMS_P2;Temp;Humidity;BMP_temperature;BMP_pressure;BME280_temperature;BME280_humidity;BME280_pressure;Samples;Min_cycle;Max_cycle;Signal;HPM_P1;HPM_P2
2023/03/23 00:00:28;;;;;;;2.40;0.68;;;;;;;;;;5283702;28;20025;-68
2023/03/23 00:02:59;;;;;;;2.20;0.60;;;;;;;;;;5283295;28;20021;-68
2023/03/23 00:05:30;;;;;;;4.65;0.60;;;;;;;;;;5283854;28;20477;-68
2023/03/23 00:08:02;;;;;;;3.57;0.70;;;;;;;;;;5284215;28;20028;-68
2023/03/23 00:10:34;;;;;;;2.55;0.70;;;;;;;;;;5282638;28;20383;-68
2023/03/23 00:13:06;;;;;;;3.10;0.70;;;;;;;;;;5284105;28;20024;-68
2023/03/23 00:15:41;;;;;;;2.33;0.60;;;;;;;;;;5283091;28;20024;-68
2023/03/23 00:18:20;;;;;;;2.22;0.73;;;;;;;;;;5283488;28;20012;-68
2023/03/23 00:20:53;;;;;;;3.00;0.60;;;;;;;;;;5283437;28;20024;-68
2023/03/23 00:23:25;;;;;;;1.90;0.70;;;;;;;;;;5282400;28;20031;-69
2023/03/23 00:25:56;;;;;;;1.75;0.50;;;;;;;;;;5283658;28;20027;-68
2023/03/23 00:28:28;;;;;;;2.10;0.80;;;;;;;;;;5282766;28;20028;-68
2023/03/23 00:31:03;;;;;;;1.80;0.75;;;;;;;;;;5282886;28;20403;-68
2023/03/23 00:33:37;;;;;;;3.15;0.80;;;;;;;;;;5282973;28;20102;-68
2023/03/23 00:36:09;;;;;;;2.45;0.80;;;;;;;;;;5283225;28;20103;-69
2023/03/23 00:38:41;;;;;;;1.95;0.68;;;;;;;;;;5282225;28;20463;-69
2023/03/23 00:41:15;;;;;;;2.60;0.80;;;;;;;;;;5283578;28;20043;-69
2023/03/23 00:43:48;;;;;;;2.03;0.80;;;;;;;;;;5282754;28;20013;-69
2023/03/23 00:46:20;;;;;;;1.50;0.70;;;;;;;;;;5282388;28;20024;-70
2023/03/23 00:48:51;;;;;;;1.67;0.70;;;;;;;;;;5283001;28;20059;-69
2023/03/23 00:51:23;;;;;;;2.65;0.90;;;;;;;;;;5282210;28;20471;-68
2023/03/23 00:53:54;;;;;;;2.88;0.80;;;;;;;;;;5282729;28;20021;-68
2023/03/23 00:56:26;;;;;;;2.13;0.80;;;;;;;;;;5282610;28;20536;-68
2023/03/23 00:58:57;;;;;;;3.13;0.98;;;;;;;;;;5282323;28;20044;-70
2023/03/23 01:01:29;;;;;;;2.67;0.70;;;;;;;;;;5282240;28;20036;-70
2023/03/23 01:04:03;;;;;;;2.03;0.68;;;;;;;;;;5282530;28;20058;-70
2023/03/23 01:06:38;;;;;;;1.75;0.80;;;;;;;;;;5281527;28;20046;-70
2023/03/23 01:09:14;;;;;;;2.53;0.98;;;;;;;;;;5282894;28;20502;-70
2023/03/23 01:11:46;;;;;;;2.38;0.85;;;;;;;;;;5282045;28;20108;-70
2023/03/23 01:14:18;;;;;;;2.17;0.80;;;;;;;;;;5281901;28;20021;-69
2023/03/23 01:16:50;;;;;;;1.77;0.88;;;;;;;;;;5282239;28;20158;-69
2023/03/23 01:19:21;;;;;;;2.67;0.80;;;;;;;;;;5281583;28;20120;-70
2023/03/23 01:21:52;;;;;;;2.47;0.70;;;;;;;;;;5282167;28;20025;-69
2023/03/23 01:24:23;;;;;;;3.83;1.10;;;;;;;;;;5282213;28;20081;-69
2023/03/23 01:26:54;;;;;;;3.20;0.90;;;;;;;;;;5281567;28;20027;-69
2023/03/23 01:29:26;;;;;;;1.70;0.75;;;;;;;;;;5281550;28;20021;-70
2023/03/23 01:31:57;;;;;;;2.72;0.80;;;;;;;;;;5282377;28;20024;-68
2023/03/23 01:34:28;;;;;;;2.47;0.90;;;;;;;;;;5281148;28;20432;-69
2023/03/23 01:36:59;;;;;;;1.65;0.70;;;;;;;;;;5282581;28;20255;-69
2023/03/23 01:39:31;;;;;;;1.55;0.73;;;;;;;;;;5281818;28;20017;-69
2023/03/23 01:42:02;;;;;;;2.58;0.70;;;;;;;;;;5281300;28;20093;-69
2023/03/23 01:44:34;;;;;;;2.75;0.80;;;;;;;;;;5281639;28;20479;-69
2023/03/23 01:47:05;;;;;;;2.00;0.90;;;;;;;;;;5282228;28;20037;-69
2023/03/23 01:49:39;;;;;;;2.22;0.90;;;;;;;;;;5280955;28;20024;-69
2023/03/23 01:52:16;;;;;;;2.40;0.95;;;;;;;;;;5282092;28;20064;-69
2023/03/23 01:54:48;;;;;;;2.15;0.80;;;;;;;;;;5280874;28;20371;-68
2023/03/23 01:57:21;;;;;;;2.38;1.10;;;;;;;;;;5281743;28;20026;-70
2023/03/23 01:59:52;;;;;;;1.83;0.82;;;;;;;;;;5281791;28;20027;-69
2023/03/23 02:02:24;;;;;;;1.83;0.80;;;;;;;;;;5280674;28;20487;-69
2023/03/23 02:04:59;;;;;;;3.58;1.05;;;;;;;;;;5282319;28;20097;-69
2023/03/23 02:07:31;;;;;;;1.70;0.77;;;;;;;;;;5281306;28;20066;-70
2023/03/23 02:10:03;;;;;;;1.73;0.80;;;;;;;;;;5281182;28;20021;-69
2023/03/23 02:12:34;;;;;;;2.53;0.90;;;;;;;;;;5281347;28;20031;-69
2023/03/23 02:15:05;;;;;;;3.25;0.98;;;;;;;;;;5281891;28;20016;-69
2023/03/23 02:17:49;;;;;;;2.45;1.02;;;;;;;;;;5280651;28;20031;-70
2023/03/23 02:20:33;;;;;;;2.83;1.00;;;;;;;;;;5281418;28;20545;-69
2023/03/23 02:23:30;;;;;;;1.92;0.80;;;;;;;;;;5281149;28;20028;-70
2023/03/23 02:26:09;;;;;;;3.20;1.17;;;;;;;;;;5279581;28;20021;-70
2023/03/23 02:28:46;;;;;;;2.92;1.02;;;;;;;;;;5281193;28;20025;-70
2023/03/23 02:31:23;;;;;;;3.13;1.00;;;;;;;;;;5281068;28;20074;-70
2023/03/23 02:34:05;;;;;;;1.80;0.80;;;;;;;;;;5281477;28;20478;-69
2023/03/23 02:36:46;;;;;;;2.47;0.73;;;;;;;;;;5280348;28;20107;-69
2023/03/23 02:39:30;;;;;;;2.08;0.90;;;;;;;;;;5281480;28;20016;-69
2023/03/23 02:42:04;;;;;;;2.00;0.70;;;;;;;;;;5281876;28;20478;-68
2023/03/23 02:44:40;;;;;;;2.30;0.70;;;;;;;;;;5280282;28;20021;-68
2023/03/23 02:47:14;;;;;;;3.05;0.80;;;;;;;;;;5281688;28;20412;-68
2023/03/23 02:49:47;;;;;;;1.80;0.80;;;;;;;;;;5280998;28;20146;-68
2023/03/23 02:52:24;;;;;;;3.33;1.23;;;;;;;;;;5281647;28;20436;-68
2023/03/23 02:54:56;;;;;;;3.38;0.70;;;;;;;;;;5285406;28;20024;-68
2023/03/23 02:57:27;;;;;;;1.63;0.60;;;;;;;;;;5284918;28;20032;-70
2023/03/23 02:59:58;;;;;;;1.50;0.70;;;;;;;;;;5284499;28;20372;-69
2023/03/23 03:02:32;;;;;;;1.60;0.70;;;;;;;;;;5284948;28;20028;-70
2023/03/23 03:05:14;;;;;;;1.55;0.70;;;;;;;;;;5284652;28;20019;-69
2023/03/23 03:07:48;;;;;;;2.00;0.70;;;;;;;;;;5284587;28;20028;-69
2023/03/23 03:10:23;;;;;;;2.08;0.70;;;;;;;;;;5284648;28;20044;-69
2023/03/23 03:12:57;;;;;;;1.88;0.75;;;;;;;;;;5284533;28;20025;-69
2023/03/23 03:15:36;;;;;;;1.92;0.77;;;;;;;;;;5284607;28;20021;-71
2023/03/23 03:18:14;;;;;;;3.88;0.80;;;;;;;;;;5285111;28;20020;-68
2023/03/23 03:20:48;;;;;;;2.30;0.60;;;;;;;;;;5284002;28;20024;-68
2023/03/23 03:23:20;;;;;;;1.52;0.80;;;;;;;;;;5284889;28;20004;-69
2023/03/23 03:25:53;;;;;;;3.17;1.08;;;;;;;;;;5283834;28;20054;-69
2023/03/23 03:28:26;;;;;;;3.08;0.80;;;;;;;;;;5284591;28;20020;-69
2023/03/23 03:31:00;;;;;;;2.22;0.75;;;;;;;;;;5284875;28;20164;-69
2023/03/23 03:33:33;;;;;;;2.13;0.77;;;;;;;;;;5283305;28;20017;-69
2023/03/23 03:36:08;;;;;;;2.15;0.70;;;;;;;;;;5285023;28;20028;-68
2023/03/23 03:38:43;;;;;;;1.52;0.70;;;;;;;;;;5283998;28;20028;-68
2023/03/23 03:41:15;;;;;;;1.65;0.60;;;;;;;;;;5283849;28;20105;-69
2023/03/23 03:43:46;;;;;;;1.73;0.70;;;;;;;;;;5283960;28;20564;-70
2023/03/23 03:46:17;;;;;;;2.40;0.70;;;;;;;;;;5284683;28;20020;-70
2023/03/23 03:48:51;;;;;;;2.60;0.75;;;;;;;;;;5283104;28;20270;-69
2023/03/23 03:51:23;;;;;;;2.60;0.80;;;;;;;;;;5284050;28;20055;-70
2023/03/23 03:53:55;;;;;;;1.85;0.63;;;;;;;;;;5283882;28;20102;-70
2023/03/23 03:56:26;;;;;;;4.38;1.00;;;;;;;;;;5283720;28;20071;-70
2023/03/23 03:58:59;;;;;;;3.58;0.70;;;;;;;;;;5284365;28;20455;-69
2023/03/23 04:01:30;;;;;;;3.75;0.77;;;;;;;;;;5282869;28;20086;-70
2023/03/23 04:04:02;;;;;;;3.42;0.70;;;;;;;;;;5283791;28;20017;-68
2023/03/23 04:06:35;;;;;;;3.28;0.70;;;;;;;;;;5283532;28;20029;-68
2023/03/23 04:09:07;;;;;;;2.88;0.50;;;;;;;;;;5283233;28;20012;-69
2023/03/23 04:11:38;;;;;;;2.08;0.65;;;;;;;;;;5283596;28;20482;-68
2023/03/23 04:14:09;;;;;;;4.82;0.50;;;;;;;;;;5284160;28;20023;-68
2023/03/23 04:16:41;;;;;;;2.55;0.50;;;;;;;;;;5283128;28;20374;-68
2023/03/23 04:19:12;;;;;;;3.20;0.70;;;;;;;;;;5283671;28;20016;-68
2023/03/23 04:21:45;;;;;;;3.17;0.82;;;;;;;;;;5283190;28;20024;-69
2023/03/23 04:24:17;;;;;;;1.58;0.40;;;;;;;;;;5282903;28;20021;-68
2023/03/23 04:26:48;;;;;;;2.97;0.60;;;;;;;;;;5283177;28;20063;-69
2023/03/23 04:29:19;;;;;;;4.30;0.60;;;;;;;;;;5283067;28;20051;-69
2023/03/23 04:31:52;;;;;;;4.15;0.90;;;;;;;;;;5283405;28;20283;-69
2023/03/23 04:34:23;;;;;;;3.63;0.60;;;;;;;;;;5283445;28;20030;-68
2023/03/23 04:36:56;;;;;;;2.42;0.50;;;;;;;;;;5282546;28;20017;-69
2023/03/23 04:39:28;;;;;;;4.70;0.52;;;;;;;;;;5282785;28;20352;-69
2023/03/23 04:42:01;;;;;;;2.05;0.40;;;;;;;;;;5283383;28;20024;-68
2023/03/23 04:44:32;;;;;;;3.65;0.40;;;;;;;;;;5282137;28;20482;-68
2023/03/23 04:47:03;;;;;;;2.80;0.50;;;;;;;;;;5283412;28;20021;-69
2023/03/23 04:49:35;;;;;;;3.03;0.63;;;;;;;;;;5282774;28;20020;-69
2023/03/23 04:52:06;;;;;;;5.28;0.70;;;;;;;;;;5282148;28;20036;-68
2023/03/23 04:54:37;;;;;;;2.55;0.40;;;;;;;;;;5282731;28;20040;-68
2023/03/23 04:57:09;;;;;;;2.92;0.40;;;;;;;;;;5282122;28;20017;-68
2023/03/23 04:59:40;;;;;;;4.40;0.40;;;;;;;;;;5282356;28;20464;-68
2023/03/23 05:02:12;;;;;;;4.32;0.40;;;;;;;;;;5282927;28;20671;-68
2023/03/23 05:04:44;;;;;;;4.03;0.50;;;;;;;;;;5281495;28;20102;-68
2023/03/23 05:07:15;;;;;;;2.15;0.50;;;;;;;;;;5282686;28;20020;-68
2023/03/23 05:09:47;;;;;;;5.40;0.43;;;;;;;;;;5282027;28;20005;-68
2023/03/23 05:12:19;;;;;;;3.83;0.43;;;;;;;;;;5282428;28;20009;-68
2023/03/23 05:14:50;;;;;;;2.60;0.40;;;;;;;;;;5281688;28;20021;-68
2023/03/23 05:17:23;;;;;;;5.10;0.47;;;;;;;;;;5282285;28;20048;-69
2023/03/23 05:19:56;;;;;;;5.22;0.52;;;;;;;;;;5281779;28;20016;-69
2023/03/23 05:22:27;;;;;;;4.88;0.43;;;;;;;;;;5282182;28;20029;-69
2023/03/23 05:25:02;;;;;;;3.40;0.35;;;;;;;;;;5282566;28;20032;-69
2023/03/23 05:27:33;;;;;;;2.53;0.38;;;;;;;;;;5280755;28;20063;-69
2023/03/23 05:30:05;;;;;;;3.20;0.50;;;;;;;;;;5282026;28;20447;-69
2023/03/23 05:32:37;;;;;;;4.90;0.63;;;;;;;;;;5280989;28;20383;-69
2023/03/23 05:35:08;;;;;;;2.80;0.40;;;;;;;;;;5282179;28;20047;-70
2023/03/23 05:37:39;;;;;;;5.10;0.90;;;;;;;;;;5281583;28;20130;-69
2023/03/23 05:40:11;;;;;;;5.82;0.50;;;;;;;;;;5281087;28;20275;-69
2023/03/23 05:42:45;;;;;;;2.80;0.60;;;;;;;;;;5281154;28;20032;-69
2023/03/23 05:45:16;;;;;;;2.95;0.47;;;;;;;;;;5282210;28;20165;-69
2023/03/23 05:47:47;;;;;;;2.97;0.65;;;;;;;;;;5280598;28;20103;-69
2023/03/23 05:50:19;;;;;;;4.00;0.60;;;;;;;;;;5281982;28;20451;-69
2023/03/23 05:52:51;;;;;;;4.43;0.60;;;;;;;;;;5281497;28;20167;-69
2023/03/23 05:55:22;;;;;;;5.55;0.60;;;;;;;;;;5281214;28;20454;-69
2023/03/23 05:57:53;;;;;;;4.03;0.60;;;;;;;;;;5281825;28;20051;-69
2023/03/23 06:00:24;;;;;;;5.53;0.93;;;;;;;;;;5280836;28;20021;-69
2023/03/23 06:02:56;;;;;;;4.88;0.50;;;;;;;;;;5281933;28;20035;-69
2023/03/23 06:05:28;;;;;;;4.78;0.60;;;;;;;;;;5281258;28;20345;-70
2023/03/23 06:08:00;;;;;;;6.13;0.88;;;;;;;;;;5281434;28;20025;-69
2023/03/23 06:10:32;;;;;;;3.80;0.70;;;;;;;;;;5281816;28;20016;-69
2023/03/23 06:13:05;;;;;;;5.63;0.70;;;;;;;;;;5281889;28;20756;-68
2023/03/23 06:15:36;;;;;;;6.53;0.50;;;;;;;;;;5280425;28;20025;-68
2023/03/23 06:18:07;;;;;;;4.57;0.90;;;;;;;;;;5281816;28;20413;-68
2023/03/23 06:20:39;;;;;;;4.00;0.50;;;;;;;;;;5281056;28;20024;-69
2023/03/23 06:23:10;;;;;;;2.95;0.50;;;;;;;;;;5281084;28;20387;-69
2023/03/23 06:25:41;;;;;;;7.18;1.00;;;;;;;;;;5281359;28;20371;-70
2023/03/23 06:28:12;;;;;;;5.70;0.60;;;;;;;;;;5285631;28;20078;-70
2023/03/23 06:30:43;;;;;;;5.80;0.60;;;;;;;;;;5284628;28;20334;-69
2023/03/23 06:33:15;;;;;;;6.97;1.08;;;;;;;;;;5286059;28;20020;-69
2023/03/23 06:35:46;;;;;;;5.55;0.63;;;;;;;;;;5284312;28;20084;-69
2023/03/23 06:38:18;;;;;;;6.68;0.80;;;;;;;;;;5286073;28;20485;-69
2023/03/23 06:40:51;;;;;;;5.18;0.70;;;;;;;;;;5285214;28;20043;-69
2023/03/23 06:43:23;;;;;;;5.25;0.50;;;;;;;;;;5284649;28;20111;-69
2023/03/23 06:45:54;;;;;;;4.85;0.65;;;;;;;;;;5285413;28;20440;-69
2023/03/23 06:48:26;;;;;;;5.40;0.68;;;;;;;;;;5284947;28;20021;-69
2023/03/23 06:50:58;;;;;;;4.07;0.40;;;;;;;;;;5284539;28;20044;-69
2023/03/23 06:53:29;;;;;;;7.35;0.80;;;;;;;;;;5284854;28;20615;-69
2023/03/23 06:56:01;;;;;;;4.32;0.52;;;;;;;;;;5285580;28;20070;-69
2023/03/23 06:58:32;;;;;;;4.72;0.40;;;;;;;;;;5283971;28;20024;-70
2023/03/23 07:01:03;;;;;;;2.83;0.50;;;;;;;;;;5285452;28;20016;-69
2023/03/23 07:03:35;;;;;;;4.82;0.80;;;;;;;;;;5284675;28;20042;-69
2023/03/23 07:06:07;;;;;;;5.07;0.70;;;;;;;;;;5284291;28;20019;-68
2023/03/23 07:08:38;;;;;;;3.40;0.50;;;;;;;;;;5284340;28;20029;-68
2023/03/23 07:11:10;;;;;;;3.60;0.60;;;;;;;;;;5284138;28;20364;-69
2023/03/23 07:13:41;;;;;;;4.93;0.45;;;;;;;;;;5284541;28;20020;-70
2023/03/23 07:16:12;;;;;;;4.63;0.63;;;;;;;;;;5285009;28;20008;-69
2023/03/23 07:18:44;;;;;;;3.42;0.60;;;;;;;;;;5283451;28;20036;-69
2023/03/23 07:21:16;;;;;;;5.05;0.60;;;;;;;;;;5284877;28;20525;-70
2023/03/23 07:23:47;;;;;;;2.85;0.50;;;;;;;;;;5284415;28;20024;-70
2023/03/23 07:26:18;;;;;;;6.00;0.60;;;;;;;;;;5284055;28;20016;-67
2023/03/23 07:28:49;;;;;;;3.53;0.55;;;;;;;;;;5284148;28;20032;-68
2023/03/23 07:31:21;;;;;;;4.43;0.52;;;;;;;;;;5284453;28;20158;-69
2023/03/23 07:33:53;;;;;;;7.38;0.77;;;;;;;;;;5283522;28;20024;-68
2023/03/23 07:36:25;;;;;;;3.55;0.50;;;;;;;;;;5284228;28;20391;-69
2023/03/23 07:38:58;;;;;;;4.57;0.40;;;;;;;;;;5282800;28;20020;-69
2023/03/23 07:41:29;;;;;;;1.92;0.40;;;;;;;;;;5283935;28;20066;-68
2023/03/23 07:44:00;;;;;;;1.17;0.20;;;;;;;;;;5284660;28;20051;-68
2023/03/23 07:46:32;;;;;;;1.08;0.20;;;;;;;;;;5283097;28;20162;-68
2023/03/23 07:49:06;;;;;;;1.60;0.20;;;;;;;;;;5284391;28;20031;-68
2023/03/23 07:51:40;;;;;;;1.85;0.22;;;;;;;;;;5283631;28;20059;-68
2023/03/23 07:54:11;;;;;;;3.90;0.40;;;;;;;;;;5283837;28;20025;-69
2023/03/23 07:56:44;;;;;;;1.77;0.38;;;;;;;;;;5283897;28;20038;-69
2023/03/23 07:59:16;;;;;;;1.60;0.25;;;;;;;;;;5284224;28;20043;-69
2023/03/23 08:01:47;;;;;;;1.50;0.22;;;;;;;;;;5282744;28;20365;-69
2023/03/23 08:04:18;;;;;;;2.47;0.20;;;;;;;;;;5284142;28;20491;-69
2023/03/23 08:06:49;;;;;;;2.08;0.30;;;;;;;;;;5278707;28;20052;-68
2023/03/23 08:09:21;;;;;;;1.13;0.20;;;;;;;;;;5282274;28;20035;-68
2023/03/23 08:11:52;;;;;;;2.47;0.63;;;;;;;;;;5283340;28;20255;-70
2023/03/23 08:14:27;;;;;;;0.82;0.20;;;;;;;;;;5282624;28;20013;-70
2023/03/23 08:16:58;;;;;;;2.50;0.20;;;;;;;;;;5283613;28;20505;-70
2023/03/23 08:19:30;;;;;;;2.20;0.40;;;;;;;;;;5281693;28;20100;-69
2023/03/23 08:22:01;;;;;;;2.67;0.20;;;;;;;;;;5282715;28;20044;-70
2023/03/23 08:24:32;;;;;;;1.95;0.20;;;;;;;;;;5283203;28;20016;-70
2023/03/23 08:27:03;;;;;;;1.35;0.10;;;;;;;;;;5283493;28;20035;-70
2023/03/23 08:29:35;;;;;;;1.77;0.35;;;;;;;;;;5281960;28;20099;-70
2023/03/23 08:32:06;;;;;;;3.10;0.20;;;;;;;;;;5283439;28;20398;-70
2023/03/23 08:34:37;;;;;;;2.42;0.20;;;;;;;;;;5282737;28;20463;-69
2023/03/23 08:37:09;;;;;;;3.00;0.25;;;;;;;;;;5282376;28;20111;-70
2023/03/23 08:39:40;;;;;;;1.05;0.10;;;;;;;;;;5282472;28;20093;-69
2023/03/23 08:42:11;;;;;;;1.00;0.30;;;;;;;;;;5282347;28;20036;-69
2023/03/23 08:44:43;;;;;;;1.27;0.17;;;;;;;;;;5280696;28;20089;-70
2023/03/23 08:47:15;;;;;;;1.58;0.20;;;;;;;;;;5271907;28;20074;-70
2023/03/23 08:49:47;;;;;;;1.45;0.10;;;;;;;;;;5279315;28;20026;-69
2023/03/23 08:52:18;;;;;;;1.23;0.20;;;;;;;;;;5280483;28;20531;-70
2023/03/23 08:54:50;;;;;;;2.10;0.22;;;;;;;;;;5280146;28;20028;-70
2023/03/23 08:57:21;;;;;;;1.60;0.20;;;;;;;;;;5279303;28;20490;-69
2023/03/23 08:59:59;;;;;;;3.45;0.30;;;;;;;;;;5273104;28;20047;-70
2023/03/23 09:02:33;;;;;;;1.67;0.20;;;;;;;;;;5277813;28;20082;-69
2023/03/23 09:05:05;;;;;;;1.73;0.20;;;;;;;;;;5282089;28;20024;-69
2023/03/23 09:07:40;;;;;;;1.45;0.30;;;;;;;;;;5281142;28;20024;-68
2023/03/23 09:10:12;;;;;;;1.13;0.25;;;;;;;;;;5282600;28;20464;-70
2023/03/23 09:12:45;;;;;;;1.83;0.20;;;;;;;;;;5280446;28;20565;-70
2023/03/23 09:15:17;;;;;;;3.65;0.35;;;;;;;;;;5281677;28;20070;-69
2023/03/23 09:17:49;;;;;;;1.45;0.30;;;;;;;;;;5281329;28;20097;-69
2023/03/23 09:20:22;;;;;;;1.75;0.20;;;;;;;;;;5282078;28;20017;-67
2023/03/23 09:22:54;;;;;;;1.88;0.22;;;;;;;;;;5282151;28;20115;-69
2023/03/23 09:25:26;;;;;;;1.60;0.30;;;;;;;;;;5281187;28;20012;-71
2023/03/23 09:27:58;;;;;;;3.90;0.20;;;;;;;;;;5282645;28;20532;-70
2023/03/23 09:30:30;;;;;;;1.30;0.30;;;;;;;;;;5281668;28;20012;-71
2023/03/23 09:33:03;;;;;;;2.50;0.30;;;;;;;;;;5281737;28;20028;-71
2023/03/23 09:35:36;;;;;;;1.30;0.20;;;;;;;;;;5281823;28;20023;-71
2023/03/23 09:38:09;;;;;;;2.75;0.30;;;;;;;;;;5282030;28;20035;-71
2023/03/23 09:40:50;;;;;;;1.48;0.30;;;;;;;;;;5280782;28;20021;-71
2023/03/23 09:43:46;;;;;;;1.98;0.30;;;;;;;;;;5282015;28;20044;-70
2023/03/23 09:46:23;;;;;;;1.15;0.20;;;;;;;;;;5281446;28;20372;-71
2023/03/23 09:48:55;;;;;;;3.38;0.20;;;;;;;;;;5282255;28;20028;-72
2023/03/23 09:51:32;;;;;;;2.75;0.30;;;;;;;;;;5281403;28;20052;-72
2023/03/23 09:54:09;;;;;;;1.00;0.20;;;;;;;;;;5281387;28;20031;-71
2023/03/23 09:56:41;;;;;;;1.90;0.30;;;;;;;;;;5281446;28;20048;-71
2023/03/23 09:59:21;;;;;;;2.38;0.65;;;;;;;;;;5282286;28;20106;-71
2023/03/23 10:01:55;;;;;;;1.05;0.20;;;;;;;;;;5280417;28;20428;-71
2023/03/23 10:04:31;;;;;;;2.30;0.32;;;;;;;;;;5281236;28;20024;-71
2023/03/23 10:07:11;;;;;;;2.67;0.30;;;;;;;;;;5281190;28;20016;-72
2023/03/23 10:09:43;;;;;;;2.53;0.30;;;;;;;;;;5281480;28;20020;-71
2023/03/23 10:12:25;;;;;;;1.83;0.30;;;;;;;;;;5282004;28;20500;-71
2023/03/23 10:14:59;;;;;;;2.53;0.30;;;;;;;;;;5281347;28;20021;-71
2023/03/23 10:17:39;;;;;;;2.58;0.30;;;;;;;;;;5281385;28;20383;-72
2023/03/23 10:20:14;;;;;;;2.63;0.40;;;;;;;;;;5282088;28;20597;-72
2023/03/23 10:22:49;;;;;;;2.30;0.30;;;;;;;;;;5280556;28;20077;-72
2023/03/23 10:25:23;;;;;;;2.92;0.38;;;;;;;;;;5281321;28;20020;-72
2023/03/23 10:28:12;;;;;;;2.30;0.40;;;;;;;;;;5280569;28;20016;-72
2023/03/23 10:30:55;;;;;;;2.85;0.70;;;;;;;;;;5281310;28;20017;-72
2023/03/23 10:33:34;;;;;;;1.48;0.20;;;;;;;;;;5281123;28;20105;-72
2023/03/23 10:36:14;;;;;;;1.60;0.30;;;;;;;;;;5281155;28;20024;-72
2023/03/23 10:38:50;;;;;;;2.30;0.40;;;;;;;;;;5281068;28;20089;-71
2023/03/23 10:41:21;;;;;;;3.33;0.40;;;;;;;;;;5281203;28;20016;-72
2023/03/23 10:43:54;;;;;;;3.15;0.40;;;;;;;;;;5280614;28;20367;-72
2023/03/23 10:46:35;;;;;;;2.78;0.60;;;;;;;;;;5281082;28;20356;-72
2023/03/23 10:49:09;;;;;;;3.20;0.43;;;;;;;;;;5280928;28;20032;-72
2023/03/23 10:51:43;;;;;;;2.33;0.63;;;;;;;;;;5280925;28;20040;-70
2023/03/23 10:54:25;;;;;;;3.40;0.47;;;;;;;;;;5281450;28;20020;-72
2023/03/23 10:56:56;;;;;;;4.28;0.47;;;;;;;;;;5280628;28;20021;-72
2023/03/23 10:59:28;;;;;;;3.53;0.50;;;;;;;;;;5280724;28;20467;-72
2023/03/23 11:02:03;;;;;;;2.67;0.47;;;;;;;;;;5281660;28;20381;-72
2023/03/23 11:04:34;;;;;;;2.03;0.30;;;;;;;;;;5280258;28;20021;-71
2023/03/23 11:07:13;;;;;;;4.00;0.50;;;;;;;;;;5281398;28;20028;-73
2023/03/23 11:09:53;;;;;;;1.60;0.30;;;;;;;;;;5280667;28;20390;-72
2023/03/23 11:12:24;;;;;;;4.18;0.50;;;;;;;;;;5280848;28;20016;-72
2023/03/23 11:15:03;;;;;;;3.90;0.70;;;;;;;;;;5284651;28;20020;-72
2023/03/23 11:17:34;;;;;;;4.55;0.50;;;;;;;;;;5283738;28;20460;-71
2023/03/23 11:20:13;;;;;;;3.60;0.50;;;;;;;;;;5284910;28;20096;-71
2023/03/23 11:22:44;;;;;;;4.80;0.40;;;;;;;;;;5284584;28;20789;-70
2023/03/23 11:25:16;;;;;;;1.67;0.40;;;;;;;;;;5284204;28;20031;-71
2023/03/23 11:27:48;;;;;;;3.72;0.40;;;;;;;;;;5284048;28;20035;-71
2023/03/23 11:30:22;;;;;;;3.25;0.40;;;;;;;;;;5284286;28;20021;-72
2023/03/23 11:32:54;;;;;;;2.10;0.40;;;;;;;;;;5283707;28;20013;-70
2023/03/23 11:35:27;;;;;;;2.33;0.40;;;;;;;;;;5283885;28;20383;-72
2023/03/23 11:37:58;;;;;;;2.30;0.30;;;;;;;;;;5284035;28;20017;-71
2023/03/23 11:40:31;;;;;;;3.05;0.45;;;;;;;;;;5284062;28;20028;-72
2023/03/23 11:43:18;;;;;;;3.58;0.60;;;;;;;;;;5284297;28;20039;-72
2023/03/23 11:46:18;;;;;;;3.90;0.45;;;;;;;;;;5283289;28;20036;-71
2023/03/23 11:48:54;;;;;;;1.77;0.30;;;;;;;;;;5283848;28;20023;-72
2023/03/23 11:51:25;;;;;;;1.55;0.30;;;;;;;;;;5283555;28;20507;-72
2023/03/23 11:54:04;;;;;;;1.88;0.30;;;;;;;;;;5283733;28;20032;-72
2023/03/23 11:56:41;;;;;;;2.08;0.40;;;;;;;;;;5283611;28;20613;-72
2023/03/23 11:59:14;;;;;;;2.47;0.30;;;;;;;;;;5283410;28;20070;-72
2023/03/23 12:01:58;;;;;;;2.17;0.30;;;;;;;;;;5283413;28;20025;-71
2023/03/23 12:04:43;;;;;;;1.55;0.38;;;;;;;;;;5283702;28;20032;-72
2023/03/23 12:07:15;;;;;;;3.17;0.38;;;;;;;;;;5283475;28;20016;-72
2023/03/23 12:09:55;;;;;;;3.13;0.60;;;;;;;;;;5283414;28;20089;-71
2023/03/23 12:12:32;;;;;;;2.97;0.52;;;;;;;;;;5283673;28;20021;-71
2023/03/23 12:15:09;;;;;;;2.17;0.40;;;;;;;;;;5282882;28;20032;-70
2023/03/23 12:18:00;;;;;;;2.95;0.40;;;;;;;;;;5282818;28;20375;-71
2023/03/23 12:20:37;;;;;;;3.30;0.60;;;;;;;;;;5279745;28;20069;-70
2023/03/23 12:23:21;;;;;;;4.05;0.70;;;;;;;;;;5282292;28;20116;-70
2023/03/23 12:26:01;;;;;;;4.47;0.57;;;;;;;;;;5282453;28;20047;-70
2023/03/23 12:28:37;;;;;;;2.92;0.50;;;;;;;;;;5282100;28;20024;-71
2023/03/23 12:31:17;;;;;;;2.72;0.45;;;;;;;;;;5283690;28;20020;-71
2023/03/23 12:33:53;;;;;;;3.67;0.50;;;;;;;;;;5282924;28;20510;-70
2023/03/23 12:36:24;;;;;;;4.75;0.57;;;;;;;;;;5281869;28;20024;-70
2023/03/23 12:39:21;;;;;;;2.47;0.43;;;;;;;;;;5281021;28;20411;-70
2023/03/23 12:41:56;;;;;;;4.93;0.90;;;;;;;;;;5263703;28;20294;-70
2023/03/23 12:44:33;;;;;;;3.72;0.50;;;;;;;;;;5280738;28;20032;-71
2023/03/23 12:47:10;;;;;;;3.40;0.43;;;;;;;;;;5281180;28;20023;-71
2023/03/23 12:50:09;;;;;;;4.00;0.60;;;;;;;;;;5279508;28;20028;-71
2023/03/23 12:52:47;;;;;;;5.22;0.60;;;;;;;;;;5265234;28;20399;-71
2023/03/23 12:55:33;;;;;;;2.93;0.50;;;;;;;;;;5282704;28;20027;-71
2023/03/23 12:58:07;;;;;;;4.13;0.50;;;;;;;;;;5282748;28;20013;-71
2023/03/23 13:00:57;;;;;;;2.78;0.52;;;;;;;;;;5282425;28;20432;-69
2023/03/23 13:03:34;;;;;;;6.38;0.50;;;;;;;;;;5281701;28;20064;-70
2023/03/23 13:06:06;;;;;;;6.60;1.10;;;;;;;;;;5282729;28;20137;-70
2023/03/23 13:08:49;;;;;;;3.92;0.60;;;;;;;;;;5282089;28;20469;-68
2023/03/23 13:11:25;;;;;;;4.28;0.60;;;;;;;;;;5282009;28;20079;-68
2023/03/23 13:14:02;;;;;;;4.10;0.70;;;;;;;;;;5282685;28;20032;-67
2023/03/23 13:16:48;;;;;;;3.78;0.60;;;;;;;;;;5281372;28;20071;-70
2023/03/23 13:19:25;;;;;;;6.25;0.70;;;;;;;;;;5282357;28;20024;-70
2023/03/23 13:22:29;;;;;;;5.18;0.73;;;;;;;;;;5282348;28;20039;-68
2023/03/23 13:25:03;;;;;;;4.13;0.70;;;;;;;;;;5258505;28;20520;-69
2023/03/23 13:27:35;;;;;;;2.80;0.50;;;;;;;;;;5281933;28;20104;-69
2023/03/23 13:30:17;;;;;;;3.47;0.63;;;;;;;;;;5278531;28;20146;-69
2023/03/23 13:32:48;;;;;;;4.25;0.70;;;;;;;;;;5260243;28;20103;-69
2023/03/23 13:35:22;;;;;;;5.13;0.70;;;;;;;;;;5260757;28;20088;-69
2023/03/23 13:37:55;;;;;;;4.78;0.60;;;;;;;;;;5260073;28;20044;-70
2023/03/23 13:40:28;;;;;;;5.18;0.70;;;;;;;;;;5259592;28;20024;-70
2023/03/23 13:43:00;;;;;;;4.95;0.73;;;;;;;;;;5260394;28;20029;-70
2023/03/23 13:45:32;;;;;;;5.40;0.70;;;;;;;;;;5260090;28;20024;-69
2023/03/23 13:48:17;;;;;;;3.72;0.70;;;;;;;;;;5261230;28;20094;-70
2023/03/23 13:50:53;;;;;;;4.07;0.60;;;;;;;;;;5259868;28;20009;-69
2023/03/23 13:53:32;;;;;;;3.70;0.50;;;;;;;;;;5261467;28;20102;-69
2023/03/23 13:56:03;;;;;;;;;;;;;;;;;;5266407;28;20051;-67
2023/03/23 13:58:44;;;;;;;3.85;0.50;;;;;;;;;;5264089;28;19947;-68
2023/03/23 14:01:17;;;;;;;4.50;0.55;;;;;;;;;;5261436;28;20736;-68
2023/03/23 14:03:50;;;;;;;3.42;0.50;;;;;;;;;;5268250;28;20067;-67
2023/03/23 14:06:24;;;;;;;4.18;0.40;;;;;;;;;;5269904;28;20020;-68
2023/03/23 14:08:55;;;;;;;3.70;0.50;;;;;;;;;;5279579;28;20379;-69
2023/03/23 14:11:29;;;;;;;3.95;0.80;;;;;;;;;;5279035;28;20024;-70
2023/03/23 14:14:01;;;;;;;2.50;0.47;;;;;;;;;;5279747;28;20021;-70
2023/03/23 14:16:32;;;;;;;3.15;0.50;;;;;;;;;;5279323;28;20066;-71
2023/03/23 14:19:12;;;;;;;3.77;0.70;;;;;;;;;;5279310;28;20017;-69
2023/03/23 14:22:04;;;;;;;5.00;0.65;;;;;;;;;;5278490;28;20289;-70
2023/03/23 14:24:39;;;;;;;4.30;0.60;;;;;;;;;;5278346;28;20484;-69
2023/03/23 14:27:12;;;;;;;5.05;0.75;;;;;;;;;;5279947;28;20492;-71
2023/03/23 14:29:44;;;;;;;4.50;0.60;;;;;;;;;;5280085;28;20098;-71
2023/03/23 14:32:17;;;;;;;5.53;1.35;;;;;;;;;;5280525;28;20044;-71
2023/03/23 14:34:50;;;;;;;4.82;0.95;;;;;;;;;;5279460;28;20017;-69
2023/03/23 14:37:21;;;;;;;4.00;0.70;;;;;;;;;;5280240;28;20071;-70
2023/03/23 14:39:53;;;;;;;4.22;0.70;;;;;;;;;;5279966;28;20063;-70
2023/03/23 14:42:32;;;;;;;5.07;0.80;;;;;;;;;;5279408;28;20487;-70
2023/03/23 14:45:04;;;;;;;3.85;0.60;;;;;;;;;;5280602;28;20020;-70
2023/03/23 14:47:38;;;;;;;4.53;0.73;;;;;;;;;;5280878;28;20035;-70
2023/03/23 14:50:35;;;;;;;3.75;0.57;;;;;;;;;;5283724;28;20066;-71
2023/03/23 14:53:22;;;;;;;4.50;0.70;;;;;;;;;;5275780;28;20048;-71
2023/03/23 14:55:55;;;;;;;5.75;0.77;;;;;;;;;;5282903;28;20024;-72
2023/03/23 14:58:26;;;;;;;4.65;0.70;;;;;;;;;;5283554;28;20535;-71
2023/03/23 15:00:58;;;;;;;4.68;0.85;;;;;;;;;;5284195;28;20103;-71
2023/03/23 15:03:40;;;;;;;3.55;0.65;;;;;;;;;;5283133;28;20028;-71
2023/03/23 15:06:14;;;;;;;6.05;0.60;;;;;;;;;;5284533;28;20494;-69
2023/03/23 15:08:46;;;;;;;2.88;0.50;;;;;;;;;;5283660;28;20017;-70
2023/03/23 15:11:17;;;;;;;4.07;0.60;;;;;;;;;;5282861;28;20016;-69
2023/03/23 15:13:50;;;;;;;2.78;0.50;;;;;;;;;;5283859;28;20020;-70
2023/03/23 15:16:23;;;;;;;3.97;0.60;;;;;;;;;;5283441;28;20662;-69
2023/03/23 15:18:59;;;;;;;3.78;0.55;;;;;;;;;;5283590;28;20107;-70
2023/03/23 15:21:31;;;;;;;4.57;0.60;;;;;;;;;;5283051;28;20026;-70
2023/03/23 15:24:18;;;;;;;4.60;0.73;;;;;;;;;;5283525;28;20025;-70